sensor_id;sensor_type;location;lat;lon;timestamp;pressure;altitude;pressure_sealevel;temperature;humidity
31092;BME280;67728;53.122;12.776;2023-03-26T00:00:57;99224.72;;;6.81;84.57
31092;BME280;67728;53.122;12.776;2023-03-26T00:02:29;99219.56;;;6.81;84.30
31092;BME280;67728;53.122;12.776;2023-03-26T00:04:02;99225.66;;;6.77;84.48
31092;BME280;67728;53.122;12.776;2023-03-26T00:05:34;99226.56;;;6.76;84.42
31092;BME280;67728;53.122;12.776;2023-03-26T00:07:05;99236.00;;;6.75;84.86
31092;BME280;67728;53.122;12.776;2023-03-26T00:08:40;99236.94;;;6.73;85.33
31092;BME280;67728;53.122;12.776;2023-03-26T00:10:11;99232.72;;;6.69;85.72
31092;BME280;67728;53.122;12.776;2023-03-26T00:11:44;99234.38;;;6.71;85.58
31092;BME280;67728;53.122;12.776;2023-03-26T00:13:16;99241.25;;;6.71;85.55
31092;BME280;67728;53.122;12.776;2023-03-26T00:14:48;99244.78;;;6.67;86.20
31092;BME280;67728;53.122;12.776;2023-03-26T00:16:21;99244.78;;;6.67;85.72
31092;BME280;67728;53.122;12.776;2023-03-26T00:17:54;99236.34;;;6.60;86.31
31092;BME280;67728;53.122;12.776;2023-03-26T00:19:26;99250.09;;;6.60;86.44
31092;BME280;67728;53.122;12.776;2023-03-26T00:21:01;99247.56;;;6.57;85.84
31092;BME280;67728;53.122;12.776;2023-03-26T00:22:32;99250.09;;;6.60;86.44
31092;BME280;67728;53.122;12.776;2023-03-26T00:24:09;99247.56;;;6.57;86.47
31092;BME280;67728;53.122;12.776;2023-03-26T00:25:41;99244.97;;;6.59;85.75
31092;BME280;67728;53.122;12.776;2023-03-26T00:27:12;99251.84;;;6.58;86.40
31092;BME280;67728;53.122;12.776;2023-03-26T00:28:44;99258.72;;;6.58;86.34
31092;BME280;67728;53.122;12.776;2023-03-26T00:30:15;99253.50;;;6.61;85.33
31092;BME280;67728;53.122;12.776;2023-03-26T00:31:47;99258.66;;;6.61;85.81
31092;BME280;67728;53.122;12.776;2023-03-26T00:33:20;99256.13;;;6.59;86.25
31092;BME280;67728;53.122;12.776;2023-03-26T00:34:51;99255.28;;;6.59;85.50
31092;BME280;67728;53.122;12.776;2023-03-26T00:36:24;99255.13;;;6.65;84.55
31092;BME280;67728;53.122;12.776;2023-03-26T00:37:56;99245.66;;;6.66;85.49
31092;BME280;67728;53.122;12.776;2023-03-26T00:39:29;99257.75;;;6.63;85.24
31092;BME280;67728;53.122;12.776;2023-03-26T00:41:03;99248.41;;;6.59;85.69
31092;BME280;67728;53.122;12.776;2023-03-26T00:42:36;99247.63;;;6.54;85.27
31092;BME280;67728;53.122;12.776;2023-03-26T00:44:08;99254.44;;;6.58;84.75
31092;BME280;67728;53.122;12.776;2023-03-26T00:45:40;99259.53;;;6.60;84.99
31092;BME280;67728;53.122;12.776;2023-03-26T00:47:11;99263.88;;;6.58;85.05
31092;BME280;67728;53.122;12.776;2023-03-26T00:48:45;99263.88;;;6.59;84.31
31092;BME280;67728;53.122;12.776;2023-03-26T00:50:15;99260.28;;;6.65;84.34
31092;BME280;67728;53.122;12.776;2023-03-26T00:51:47;99259.41;;;6.66;84.27
31092;BME280;67728;53.122;12.776;2023-03-26T00:53:19;99252.53;;;6.67;84.81
31092;BME280;67728;53.122;12.776;2023-03-26T00:54:50;99260.22;;;6.68;84.41
31092;BME280;67728;53.122;12.776;2023-03-26T00:56:22;99264.56;;;6.66;84.17
31092;BME280;67728;53.122;12.776;2023-03-26T00:57:53;99264.59;;;6.65;84.19
31092;BME280;67728;53.122;12.776;2023-03-26T00:59:25;99265.41;;;6.67;84.34
31092;BME280;67728;53.122;12.776;2023-03-26T01:01:02;99264.53;;;6.68;84.38
31092;BME280;67728;53.122;12.776;2023-03-26T01:02:34;99261.97;;;6.68;84.54
31092;BME280;67728;53.122;12.776;2023-03-26T01:04:23;99263.63;;;6.69;83.92
31092;BME280;67728;53.122;12.776;2023-03-26T01:05:57;99262.84;;;6.67;84.34
31092;BME280;67728;53.122;12.776;2023-03-26T01:07:33;99269.69;;;6.68;84.45
31092;BME280;67728;53.122;12.776;2023-03-26T01:09:13;99269.59;;;6.71;83.72
31092;BME280;67728;53.122;12.776;2023-03-26T01:10:45;99266.94;;;6.74;83.22
31092;BME280;67728;53.122;12.776;2023-03-26T01:12:22;99260.94;;;6.75;82.93
31092;BME280;67728;53.122;12.776;2023-03-26T01:13:58;99268.66;;;6.75;84.00
31092;BME280;67728;53.122;12.776;2023-03-26T01:15:30;99278.16;;;6.73;84.21
31092;BME280;67728;53.122;12.776;2023-03-26T01:17:02;99279.94;;;6.69;83.60
31092;BME280;67728;53.122;12.776;2023-03-26T01:18:36;99280.75;;;6.71;83.59
31092;BME280;67728;53.122;12.776;2023-03-26T01:20:16;99284.97;;;6.75;83.80
31092;BME280;67728;53.122;12.776;2023-03-26T01:21:50;99284.13;;;6.75;84.27
31092;BME280;67728;53.122;12.776;2023-03-26T01:23:25;99288.47;;;6.73;84.31
31092;BME280;67728;53.122;12.776;2023-03-26T01:25:02;99287.69;;;6.69;84.24
31092;BME280;67728;53.122;12.776;2023-03-26T01:26:53;99284.25;;;6.69;84.45
31092;BME280;67728;53.122;12.776;2023-03-26T01:28:28;99293.63;;;6.71;84.47
31092;BME280;67728;53.122;12.776;2023-03-26T01:30:08;99298.78;;;6.73;83.98
31092;BME280;67728;53.122;12.776;2023-03-26T01:31:44;99294.50;;;6.72;83.83
31092;BME280;67728;53.122;12.776;2023-03-26T01:33:21;99296.13;;;6.76;83.67
31092;BME280;67728;53.122;12.776;2023-03-26T01:35:20;99294.38;;;6.76;84.12
31092;BME280;67728;53.122;12.776;2023-03-26T01:36:58;99304.72;;;6.75;83.46
31092;BME280;67728;53.122;12.776;2023-03-26T01:38:40;99302.16;;;6.75;83.53
31092;BME280;67728;53.122;12.776;2023-03-26T01:40:23;99306.44;;;6.76;83.82
31092;BME280;67728;53.122;12.776;2023-03-26T01:42:01;99303.00;;;6.75;84.15
31092;BME280;67728;53.122;12.776;2023-03-26T01:43:37;99302.09;;;6.76;84.09
31092;BME280;67728;53.122;12.776;2023-03-26T01:45:15;99292.66;;;6.77;83.48
31092;BME280;67728;53.122;12.776;2023-03-26T01:46:48;99295.22;;;6.77;83.19
31092;BME280;67728;53.122;12.776;2023-03-26T01:48:28;99300.28;;;6.81;83.05
31092;BME280;67728;53.122;12.776;2023-03-26T01:50:01;99298.59;;;6.79;82.58
31092;BME280;67728;53.122;12.776;2023-03-26T01:51:34;99302.09;;;6.78;83.25
31092;BME280;67728;53.122;12.776;2023-03-26T01:53:05;99311.59;;;6.76;83.41
31092;BME280;67728;53.122;12.776;2023-03-26T01:54:38;99302.94;;;6.77;83.10
31092;BME280;67728;53.122;12.776;2023-03-26T01:56:15;99309.88;;;6.75;82.62
31092;BME280;67728;53.122;12.776;2023-03-26T01:57:54;99304.75;;;6.73;83.50
31092;BME280;67728;53.122;12.776;2023-03-26T01:59:50;99313.50;;;6.66;83.76
31092;BME280;67728;53.122;12.776;2023-03-26T02:01:27;99309.09;;;6.71;82.63
31092;BME280;67728;53.122;12.776;2023-03-26T02:03:10;99313.31;;;6.74;82.74
31092;BME280;67728;53.122;12.776;2023-03-26T02:04:51;99308.41;;;6.65;83.48
31092;BME280;67728;53.122;12.776;2023-03-26T02:06:26;99299.00;;;6.62;83.94
31092;BME280;67728;53.122;12.776;2023-03-26T02:08:08;99305.88;;;6.61;83.55
31092;BME280;67728;53.122;12.776;2023-03-26T02:09:44;99306.75;;;6.62;83.63
31092;BME280;67728;53.122;12.776;2023-03-26T02:11:18;99308.53;;;6.58;84.05
31092;BME280;67728;53.122;12.776;2023-03-26T02:12:50;99310.25;;;6.58;83.83
31092;BME280;67728;53.122;12.776;2023-03-26T02:14:23;99306.81;;;6.57;84.24
31092;BME280;67728;53.122;12.776;2023-03-26T02:15:56;99314.56;;;6.57;84.21
31092;BME280;67728;53.122;12.776;2023-03-26T02:17:29;99307.72;;;6.56;84.88
31092;BME280;67728;53.122;12.776;2023-03-26T02:19:03;99309.44;;;6.56;84.55
31092;BME280;67728;53.122;12.776;2023-03-26T02:20:34;99310.28;;;6.56;84.79
31092;BME280;67728;53.122;12.776;2023-03-26T02:22:06;99310.34;;;6.53;85.31
31092;BME280;67728;53.122;12.776;2023-03-26T02:23:41;99312.94;;;6.53;85.31
31092;BME280;67728;53.122;12.776;2023-03-26T02:25:18;99313.84;;;6.51;85.27
31092;BME280;67728;53.122;12.776;2023-03-26T02:26:52;99316.44;;;6.51;85.75
31092;BME280;67728;53.122;12.776;2023-03-26T02:28:23;99314.72;;;6.50;85.91
31092;BME280;67728;53.122;12.776;2023-03-26T02:29:55;99320.72;;;6.50;85.81
31092;BME280;67728;53.122;12.776;2023-03-26T02:31:27;99320.75;;;6.49;86.40
31092;BME280;67728;53.122;12.776;2023-03-26T02:32:57;99324.16;;;6.49;85.95
31092;BME280;67728;53.122;12.776;2023-03-26T02:34:29;99319.84;;;6.51;85.85
31092;BME280;67728;53.122;12.776;2023-03-26T02:36:01;99323.31;;;6.50;86.42
31092;BME280;67728;53.122;12.776;2023-03-26T02:37:31;99321.50;;;6.54;86.00
31092;BME280;67728;53.122;12.776;2023-03-26T02:39:04;99326.69;;;6.52;85.94
31092;BME280;67728;53.122;12.776;2023-03-26T02:40:35;99328.44;;;6.50;86.56
31092;BME280;67728;53.122;12.776;2023-03-26T02:42:08;99329.31;;;6.49;86.43
31092;BME280;67728;53.122;12.776;2023-03-26T02:43:40;99332.78;;;6.48;86.89
31092;BME280;67728;53.122;12.776;2023-03-26T02:45:13;99325.94;;;6.47;86.88
31092;BME280;67728;53.122;12.776;2023-03-26T02:46:45;99325.97;;;6.46;87.15
31092;BME280;67728;53.122;12.776;2023-03-26T02:48:17;99331.16;;;6.44;86.81
31092;BME280;67728;53.122;12.776;2023-03-26T02:49:49;99332.00;;;6.45;86.88
31092;BME280;67728;53.122;12.776;2023-03-26T02:51:21;99327.72;;;6.45;86.53
31092;BME280;67728;53.122;12.776;2023-03-26T02:52:52;99328.50;;;6.47;86.51
31092;BME280;67728;53.122;12.776;2023-03-26T02:54:24;99331.91;;;6.49;86.41
31092;BME280;67728;53.122;12.776;2023-03-26T02:55:56;99328.44;;;6.50;86.74
31092;BME280;67728;53.122;12.776;2023-03-26T02:57:29;99323.38;;;6.47;86.35
31092;BME280;67728;53.122;12.776;2023-03-26T02:59:02;99326.00;;;6.44;86.39
31092;BME280;67728;53.122;12.776;2023-03-26T03:00:33;99326.00;;;6.44;86.17
31092;BME280;67728;53.122;12.776;2023-03-26T03:02:04;99326.84;;;6.45;86.30
31092;BME280;67728;53.122;12.776;2023-03-26T03:03:35;99324.22;;;6.46;86.74
31092;BME280;67728;53.122;12.776;2023-03-26T03:05:07;99336.28;;;6.46;86.55
31092;BME280;67728;53.122;12.776;2023-03-26T03:06:39;99333.72;;;6.46;86.31
31092;BME280;67728;53.122;12.776;2023-03-26T03:08:10;99326.81;;;6.46;86.44
31092;BME280;67728;53.122;12.776;2023-03-26T03:09:41;99328.50;;;6.47;86.69
31092;BME280;67728;53.122;12.776;2023-03-26T03:11:14;99332.84;;;6.45;86.68
31092;BME280;67728;53.122;12.776;2023-03-26T03:12:47;99331.97;;;6.46;86.88
31092;BME280;67728;53.122;12.776;2023-03-26T03:14:19;99338.88;;;6.46;86.55
31092;BME280;67728;53.122;12.776;2023-03-26T03:15:50;99327.66;;;6.47;86.64
31092;BME280;67728;53.122;12.776;2023-03-26T03:17:21;99333.66;;;6.47;86.66
31092;BME280;67728;53.122;12.776;2023-03-26T03:18:53;99330.28;;;6.45;86.86
31092;BME280;67728;53.122;12.776;2023-03-26T03:20:25;99333.66;;;6.47;86.44
31092;BME280;67728;53.122;12.776;2023-03-26T03:21:59;99336.13;;;6.52;86.08
31092;BME280;67728;53.122;12.776;2023-03-26T03:23:31;99339.59;;;6.51;86.55
31092;BME280;67728;53.122;12.776;2023-03-26T03:25:02;99338.78;;;6.49;86.47
31092;BME280;67728;53.122;12.776;2023-03-26T03:26:34;99337.09;;;6.48;86.56
31092;BME280;67728;53.122;12.776;2023-03-26T03:28:08;99337.97;;;6.47;86.54
31092;BME280;67728;53.122;12.776;2023-03-26T03:29:40;99334.50;;;6.48;86.44
31092;BME280;67728;53.122;12.776;2023-03-26T03:31:11;99345.72;;;6.45;86.55
31092;BME280;67728;53.122;12.776;2023-03-26T03:32:42;99336.34;;;6.43;86.21
31092;BME280;67728;53.122;12.776;2023-03-26T03:34:14;99344.88;;;6.45;86.45
31092;BME280;67728;53.122;12.776;2023-03-26T03:35:45;99339.72;;;6.45;86.25
31092;BME280;67728;53.122;12.776;2023-03-26T03:37:18;99341.38;;;6.47;86.12
31092;BME280;67728;53.122;12.776;2023-03-26T03:38:50;99344.00;;;6.46;86.61
31092;BME280;67728;53.122;12.776;2023-03-26T03:40:21;99344.88;;;6.45;86.38
31092;BME280;67728;53.122;12.776;2023-03-26T03:41:53;99347.47;;;6.43;85.81
31092;BME280;67728;53.122;12.776;2023-03-26T03:43:25;99354.31;;;6.44;85.99
31092;BME280;67728;53.122;12.776;2023-03-26T03:44:57;99355.19;;;6.43;85.99
31092;BME280;67728;53.122;12.776;2023-03-26T03:46:29;99350.94;;;6.42;86.13
31092;BME280;67728;53.122;12.776;2023-03-26T03:48:01;99351.75;;;6.46;85.90
31092;BME280;67728;53.122;12.776;2023-03-26T03:49:32;99343.22;;;6.42;86.22
31092;BME280;67728;53.122;12.776;2023-03-26T03:51:04;99353.53;;;6.41;86.20
31092;BME280;67728;53.122;12.776;2023-03-26T03:52:36;99350.97;;;6.41;86.08
31092;BME280;67728;53.122;12.776;2023-03-26T03:54:07;99351.81;;;6.41;86.20
31092;BME280;67728;53.122;12.776;2023-03-26T03:55:39;99349.22;;;6.43;86.69
31092;BME280;67728;53.122;12.776;2023-03-26T03:57:11;99356.97;;;6.41;86.70
31092;BME280;67728;53.122;12.776;2023-03-26T03:58:46;99362.16;;;6.40;87.00
31092;BME280;67728;53.122;12.776;2023-03-26T04:00:18;99368.91;;;6.45;86.53
31092;BME280;67728;53.122;12.776;2023-03-26T04:01:49;99363.00;;;6.40;86.99
31092;BME280;67728;53.122;12.776;2023-03-26T04:03:21;99363.09;;;6.36;87.34
31092;BME280;67728;53.122;12.776;2023-03-26T04:04:52;99364.03;;;6.32;87.95
31092;BME280;67728;53.122;12.776;2023-03-26T04:06:26;99362.38;;;6.29;87.86
31092;BME280;67728;53.122;12.776;2023-03-26T04:07:59;99366.63;;;6.32;87.74
31092;BME280;67728;53.122;12.776;2023-03-26T04:09:31;99367.53;;;6.29;88.42
31092;BME280;67728;53.122;12.776;2023-03-26T04:11:03;99360.66;;;6.30;88.31
31092;BME280;67728;53.122;12.776;2023-03-26T04:12:34;99364.91;;;6.32;88.62
31092;BME280;67728;53.122;12.776;2023-03-26T04:14:07;99365.81;;;6.30;88.49
31092;BME280;67728;53.122;12.776;2023-03-26T04:15:40;99371.00;;;6.27;88.72
31092;BME280;67728;53.122;12.776;2023-03-26T04:17:11;99374.44;;;6.26;88.86
31092;BME280;67728;53.122;12.776;2023-03-26T04:18:44;99371.91;;;6.24;88.93
31092;BME280;67728;53.122;12.776;2023-03-26T04:20:16;99380.47;;;6.25;88.64
31092;BME280;67728;53.122;12.776;2023-03-26T04:21:48;99374.34;;;6.30;88.82
31092;BME280;67728;53.122;12.776;2023-03-26T04:23:20;99369.25;;;6.27;88.79
31092;BME280;67728;53.122;12.776;2023-03-26T04:24:52;99371.13;;;6.21;89.27
31092;BME280;67728;53.122;12.776;2023-03-26T04:26:24;99373.69;;;6.21;89.20
31092;BME280;67728;53.122;12.776;2023-03-26T04:27:55;99377.94;;;6.23;89.27
31092;BME280;67728;53.122;12.776;2023-03-26T04:29:30;99373.66;;;6.22;89.00
31092;BME280;67728;53.122;12.776;2023-03-26T04:31:09;99373.66;;;6.22;89.19
31092;BME280;67728;53.122;12.776;2023-03-26T04:32:43;99376.22;;;6.24;88.91
31092;BME280;67728;53.122;12.776;2023-03-26T04:34:20;99365.91;;;6.24;89.01
31092;BME280;67728;53.122;12.776;2023-03-26T04:35:53;99376.28;;;6.19;89.59
31092;BME280;67728;53.122;12.776;2023-03-26T04:37:28;99361.72;;;6.18;89.42
31092;BME280;67728;53.122;12.776;2023-03-26T04:39:03;99364.22;;;6.23;89.14
31092;BME280;67728;53.122;12.776;2023-03-26T04:40:36;99367.69;;;6.20;89.36
31092;BME280;67728;53.122;12.776;2023-03-26T04:42:08;99362.53;;;6.22;89.39
31092;BME280;67728;53.122;12.776;2023-03-26T04:43:41;99364.25;;;6.20;89.33
31092;BME280;67728;53.122;12.776;2023-03-26T04:45:17;99368.56;;;6.19;89.47
31092;BME280;67728;53.122;12.776;2023-03-26T04:46:51;99369.47;;;6.18;89.50
31092;BME280;67728;53.122;12.776;2023-03-26T04:48:24;99374.63;;;6.17;89.39
31092;BME280;67728;53.122;12.776;2023-03-26T04:49:56;99371.19;;;6.18;89.46
31092;BME280;67728;53.122;12.776;2023-03-26T04:51:34;99371.19;;;6.18;89.52
31092;BME280;67728;53.122;12.776;2023-03-26T04:53:09;99372.13;;;6.14;89.16
31092;BME280;67728;53.122;12.776;2023-03-26T04:54:43;99376.44;;;6.13;88.61
31092;BME280;67728;53.122;12.776;2023-03-26T04:56:23;99377.28;;;6.12;89.32
31092;BME280;67728;53.122;12.776;2023-03-26T04:57:56;99377.28;;;6.12;88.66
31092;BME280;67728;53.122;12.776;2023-03-26T04:59:34;99376.38;;;6.16;88.38
31092;BME280;67728;53.122;12.776;2023-03-26T05:01:08;99373.00;;;6.11;88.47
31092;BME280;67728;53.122;12.776;2023-03-26T05:02:40;99365.38;;;6.08;88.58
31092;BME280;67728;53.122;12.776;2023-03-26T05:04:12;99367.84;;;6.11;87.80
31092;BME280;67728;53.122;12.776;2023-03-26T05:05:44;99373.91;;;6.09;88.78
31092;BME280;67728;53.122;12.776;2023-03-26T05:07:18;99367.91;;;6.10;87.03
31092;BME280;67728;53.122;12.776;2023-03-26T05:08:49;99372.19;;;6.09;87.67
31092;BME280;67728;53.122;12.776;2023-03-26T05:10:22;99379.06;;;6.10;88.13
31092;BME280;67728;53.122;12.776;2023-03-26T05:11:53;99367.97;;;6.07;88.02
31092;BME280;67728;53.122;12.776;2023-03-26T05:13:24;99373.06;;;6.10;87.61
31092;BME280;67728;53.122;12.776;2023-03-26T05:14:56;99368.91;;;6.03;87.90
31092;BME280;67728;53.122;12.776;2023-03-26T05:16:29;99378.41;;;5.99;88.04
31092;BME280;67728;53.122;12.776;2023-03-26T05:18:03;99360.34;;;6.00;88.42
31092;BME280;67728;53.122;12.776;2023-03-26T05:19:34;99368.09;;;5.99;88.10
31092;BME280;67728;53.122;12.776;2023-03-26T05:21:05;99368.16;;;5.96;88.32
31092;BME280;67728;53.122;12.776;2023-03-26T05:22:37;99369.91;;;5.94;88.28
31092;BME280;67728;53.122;12.776;2023-03-26T05:24:07;99365.63;;;5.93;87.83
31092;BME280;67728;53.122;12.776;2023-03-26T05:25:39;99377.69;;;5.91;88.26
31092;BME280;67728;53.122;12.776;2023-03-26T05:27:13;99376.91;;;5.84;88.46
31092;BME280;67728;53.122;12.776;2023-03-26T05:28:46;99376.13;;;5.81;88.64
31092;BME280;67728;53.122;12.776;2023-03-26T05:30:19;99375.25;;;5.82;88.92
31092;BME280;67728;53.122;12.776;2023-03-26T05:31:52;99373.50;;;5.84;88.83
31092;BME280;67728;53.122;12.776;2023-03-26T05:33:24;99377.81;;;5.83;88.05
31092;BME280;67728;53.122;12.776;2023-03-26T05:34:56;99382.94;;;5.85;88.06
31092;BME280;67728;53.122;12.776;2023-03-26T05:36:28;99384.59;;;5.89;87.83
31092;BME280;67728;53.122;12.776;2023-03-26T05:37:59;99394.91;;;5.89;88.08
31092;BME280;67728;53.122;12.776;2023-03-26T05:39:31;99388.88;;;5.88;87.43
31092;BME280;67728;53.122;12.776;2023-03-26T05:41:06;99392.31;;;5.89;87.29
31092;BME280;67728;53.122;12.776;2023-03-26T05:42:39;99400.00;;;5.90;87.23
31092;BME280;67728;53.122;12.776;2023-03-26T05:44:10;99388.97;;;5.82;86.97
31092;BME280;67728;53.122;12.776;2023-03-26T05:45:41;99395.81;;;5.82;87.26
31092;BME280;67728;53.122;12.776;2023-03-26T05:47:14;99394.97;;;5.83;87.66
31092;BME280;67728;53.122;12.776;2023-03-26T05:48:46;99393.31;;;5.79;86.29
31092;BME280;67728;53.122;12.776;2023-03-26T05:50:17;99397.72;;;5.72;86.95
31092;BME280;67728;53.122;12.776;2023-03-26T05:51:49;99401.09;;;5.74;87.27
31092;BME280;67728;53.122;12.776;2023-03-26T05:53:22;99394.25;;;5.73;87.00
31092;BME280;67728;53.122;12.776;2023-03-26T05:54:55;99399.47;;;5.69;86.99
31092;BME280;67728;53.122;12.776;2023-03-26T05:56:26;99397.88;;;5.63;87.49
31092;BME280;67728;53.122;12.776;2023-03-26T05:57:57;99396.19;;;5.61;86.65
31092;BME280;67728;53.122;12.776;2023-03-26T05:59:28;99406.47;;;5.61;86.64
31092;BME280;67728;53.122;12.776;2023-03-26T06:01:02;99399.63;;;5.61;86.88
31092;BME280;67728;53.122;12.776;2023-03-26T06:02:36;99404.75;;;5.61;86.74
31092;BME280;67728;53.122;12.776;2023-03-26T06:04:08;99405.63;;;5.62;86.48
31092;BME280;67728;53.122;12.776;2023-03-26T06:05:41;99405.63;;;5.62;86.69
31092;BME280;67728;53.122;12.776;2023-03-26T06:07:13;99403.00;;;5.63;86.59
31092;BME280;67728;53.122;12.776;2023-03-26T06:08:47;99400.44;;;5.65;85.89
31092;BME280;67728;53.122;12.776;2023-03-26T06:10:19;99405.44;;;5.71;86.38
31092;BME280;67728;53.122;12.776;2023-03-26T06:11:51;99401.25;;;5.67;86.80
31092;BME280;67728;53.122;12.776;2023-03-26T06:13:21;99403.00;;;5.65;86.38
31092;BME280;67728;53.122;12.776;2023-03-26T06:14:53;99404.69;;;5.66;86.40
31092;BME280;67728;53.122;12.776;2023-03-26T06:16:25;99401.25;;;5.65;86.35
31092;BME280;67728;53.122;12.776;2023-03-26T06:17:58;99402.88;;;5.71;85.41
31092;BME280;67728;53.122;12.776;2023-03-26T06:19:29;99396.00;;;5.73;85.19
31092;BME280;67728;53.122;12.776;2023-03-26T06:21:00;99395.09;;;5.74;86.06
31092;BME280;67728;53.122;12.776;2023-03-26T06:22:32;99400.25;;;5.75;85.17
31092;BME280;67728;53.122;12.776;2023-03-26T06:24:04;99408.78;;;5.76;85.42
31092;BME280;67728;53.122;12.776;2023-03-26T06:25:36;99409.53;;;5.82;85.56
31092;BME280;67728;53.122;12.776;2023-03-26T06:27:07;99406.13;;;5.82;85.06
31092;BME280;67728;53.122;12.776;2023-03-26T06:28:38;99410.34;;;5.84;85.78
31092;BME280;67728;53.122;12.776;2023-03-26T06:30:10;99410.41;;;5.81;84.39
31092;BME280;67728;53.122;12.776;2023-03-26T06:31:41;99412.97;;;5.86;85.40
31092;BME280;67728;53.122;12.776;2023-03-26T06:33:14;99410.34;;;5.84;85.48
31092;BME280;67728;53.122;12.776;2023-03-26T06:34:46;99415.53;;;5.86;85.54
31092;BME280;67728;53.122;12.776;2023-03-26T06:36:18;99412.16;;;5.81;84.93
31092;BME280;67728;53.122;12.776;2023-03-26T06:37:49;99414.63;;;5.88;85.31
31092;BME280;67728;53.122;12.776;2023-03-26T06:39:21;99423.16;;;5.92;85.21
31092;BME280;67728;53.122;12.776;2023-03-26T06:40:53;99413.75;;;5.88;85.08
31092;BME280;67728;53.122;12.776;2023-03-26T06:42:24;99419.66;;;5.94;85.84
31092;BME280;67728;53.122;12.776;2023-03-26T06:43:56;99419.56;;;5.99;85.84
31092;BME280;67728;53.122;12.776;2023-03-26T06:45:27;99421.16;;;6.06;86.44
31092;BME280;67728;53.122;12.776;2023-03-26T06:46:58;99415.09;;;6.10;85.79
31092;BME280;67728;53.122;12.776;2023-03-26T06:48:31;99423.69;;;6.09;85.08
31092;BME280;67728;53.122;12.776;2023-03-26T06:50:04;99427.84;;;6.16;85.11
31092;BME280;67728;53.122;12.776;2023-03-26T06:51:35;99427.06;;;6.13;85.11
31092;BME280;67728;53.122;12.776;2023-03-26T06:53:10;99427.19;;;6.05;84.86
31092;BME280;67728;53.122;12.776;2023-03-26T06:54:41;99426.19;;;6.12;85.06
31092;BME280;67728;53.122;12.776;2023-03-26T06:56:13;99423.56;;;6.15;85.46
31092;BME280;67728;53.122;12.776;2023-03-26T06:57:47;99425.16;;;6.22;85.13
31092;BME280;67728;53.122;12.776;2023-03-26T06:59:18;99431.16;;;6.23;85.36
31092;BME280;67728;53.122;12.776;2023-03-26T07:00:52;99426.91;;;6.20;84.93
31092;BME280;67728;53.122;12.776;2023-03-26T07:02:23;99429.53;;;6.17;85.01
31092;BME280;67728;53.122;12.776;2023-03-26T07:03:57;99434.69;;;6.17;84.71
31092;BME280;67728;53.122;12.776;2023-03-26T07:05:28;99426.97;;;6.17;84.42
31092;BME280;67728;53.122;12.776;2023-03-26T07:07:00;99427.66;;;6.27;83.93
31092;BME280;67728;53.122;12.776;2023-03-26T07:08:32;99430.25;;;6.25;83.08
31092;BME280;67728;53.122;12.776;2023-03-26T07:10:04;99427.59;;;6.30;83.21
31092;BME280;67728;53.122;12.776;2023-03-26T07:11:36;99414.63;;;6.33;83.40
31092;BME280;67728;53.122;12.776;2023-03-26T07:13:08;99419.03;;;6.29;83.18
31092;BME280;67728;53.122;12.776;2023-03-26T07:14:39;99422.16;;;6.43;84.13
31092;BME280;67728;53.122;12.776;2023-03-26T07:16:11;99426.31;;;6.50;83.07
31092;BME280;67728;53.122;12.776;2023-03-26T07:17:43;99418.44;;;6.58;84.32
31092;BME280;67728;53.122;12.776;2023-03-26T07:19:16;99423.59;;;6.59;83.42
31092;BME280;67728;53.122;12.776;2023-03-26T07:20:48;99414.31;;;6.51;82.59
31092;BME280;67728;53.122;12.776;2023-03-26T07:22:21;99422.78;;;6.56;82.87
31092;BME280;67728;53.122;12.776;2023-03-26T07:23:54;99417.53;;;6.60;83.51
31092;BME280;67728;53.122;12.776;2023-03-26T07:25:26;99423.59;;;6.58;83.46
31092;BME280;67728;53.122;12.776;2023-03-26T07:27:02;99425.09;;;6.68;83.04
31092;BME280;67728;53.122;12.776;2023-03-26T07:28:40;99418.84;;;6.81;83.10
31092;BME280;67728;53.122;12.776;2023-03-26T07:30:20;99427.28;;;6.88;83.17
31092;BME280;67728;53.122;12.776;2023-03-26T07:32:01;99423.66;;;6.95;80.46
31092;BME280;67728;53.122;12.776;2023-03-26T07:33:36;99422.97;;;6.88;79.23
31092;BME280;67728;53.122;12.776;2023-03-26T07:35:13;99421.25;;;6.87;79.74
31092;BME280;67728;53.122;12.776;2023-03-26T07:36:51;99416.34;;;6.77;79.47
31092;BME280;67728;53.122;12.776;2023-03-26T07:38:32;99419.88;;;6.73;79.60
31092;BME280;67728;53.122;12.776;2023-03-26T07:40:13;99422.28;;;6.79;80.88
31092;BME280;67728;53.122;12.776;2023-03-26T07:41:50;99418.03;;;6.78;79.44
31092;BME280;67728;53.122;12.776;2023-03-26T07:43:40;99422.38;;;6.76;78.72
31092;BME280;67728;53.122;12.776;2023-03-26T07:45:18;99417.28;;;6.73;78.97
31092;BME280;67728;53.122;12.776;2023-03-26T07:46:52;99416.31;;;6.78;78.98
31092;BME280;67728;53.122;12.776;2023-03-26T07:48:26;99410.19;;;6.82;79.87
31092;BME280;67728;53.122;12.776;2023-03-26T07:50:00;99412.03;;;6.77;79.09
31092;BME280;67728;53.122;12.776;2023-03-26T07:51:34;99413.63;;;6.83;79.94
31092;BME280;67728;53.122;12.776;2023-03-26T07:53:06;99421.31;;;6.86;79.31
31092;BME280;67728;53.122;12.776;2023-03-26T07:54:38;99422.13;;;6.88;80.15
31092;BME280;67728;53.122;12.776;2023-03-26T07:56:13;99418.50;;;6.95;80.37
31092;BME280;67728;53.122;12.776;2023-03-26T07:57:55;99419.31;;;6.98;79.73
31092;BME280;67728;53.122;12.776;2023-03-26T07:59:33;99420.09;;;7.02;80.24
31092;BME280;67728;53.122;12.776;2023-03-26T08:01:12;99418.50;;;6.96;79.00
31092;BME280;67728;53.122;12.776;2023-03-26T08:03:01;99422.91;;;6.90;79.03
31092;BME280;67728;53.122;12.776;2023-03-26T08:04:48;99420.41;;;6.87;80.33
31092;BME280;67728;53.122;12.776;2023-03-26T08:06:27;99428.28;;;6.81;78.22
31092;BME280;67728;53.122;12.776;2023-03-26T08:08:11;99428.41;;;6.75;78.55
31092;BME280;67728;53.122;12.776;2023-03-26T08:09:56;99417.41;;;6.67;77.90
31092;BME280;67728;53.122;12.776;2023-03-26T08:11:36;99420.03;;;6.63;76.91
31092;BME280;67728;53.122;12.776;2023-03-26T08:13:19;99424.38;;;6.61;78.18
31092;BME280;67728;53.122;12.776;2023-03-26T08:14:58;99418.28;;;6.66;77.56
31092;BME280;67728;53.122;12.776;2023-03-26T08:16:37;99420.69;;;6.73;79.62